createdAt,value
2022-09-18T00:00:40.459Z,49.17
2022-09-18T00:03:06.865Z,49.22
2022-09-18T00:05:33.143Z,49.17
2022-09-18T00:07:59.490Z,49.21
2022-09-18T00:10:25.832Z,49.22
2022-09-18T00:12:52.177Z,49.13
2022-09-18T00:15:18.518Z,49.16
2022-09-18T00:17:44.869Z,49.11
2022-09-18T00:20:11.211Z,49.10
2022-09-18T00:22:37.555Z,49.09
2022-09-18T00:25:03.892Z,49.04
2022-09-18T00:27:30.262Z,49.15
2022-09-18T00:29:56.601Z,49.07
2022-09-18T00:32:22.950Z,49.09
2022-09-18T00:34:49.294Z,49.06
2022-09-18T00:37:15.650Z,49.05
2022-09-18T00:39:41.996Z,49.03
2022-09-18T00:42:08.342Z,49.04
2022-09-18T00:44:34.682Z,49.06
2022-09-18T00:47:01.021Z,49.02
2022-09-18T00:49:27.367Z,48.98
2022-09-18T00:51:53.712Z,48.92
2022-09-18T00:54:20.062Z,48.96
2022-09-18T00:56:46.398Z,48.92
2022-09-18T00:59:12.747Z,48.90
2022-09-18T01:01:39.128Z,48.89
2022-09-18T01:04:05.434Z,48.92
2022-09-18T01:06:31.784Z,48.97
2022-09-18T01:08:58.127Z,48.95
2022-09-18T01:11:24.479Z,48.87
2022-09-18T01:13:50.818Z,48.87
2022-09-18T01:16:17.270Z,48.89
2022-09-18T01:18:43.552Z,48.81
2022-09-18T01:21:09.900Z,48.74
2022-09-18T01:23:36.238Z,48.80
2022-09-18T01:26:02.583Z,48.78
2022-09-18T01:28:28.926Z,48.74
2022-09-18T01:30:55.356Z,48.75
2022-09-18T01:33:21.623Z,48.74
2022-09-18T01:35:47.964Z,48.74
2022-09-18T01:38:14.299Z,48.68
2022-09-18T01:40:40.721Z,48.66
2022-09-18T01:43:06.991Z,48.59
2022-09-18T01:45:33.378Z,48.62
2022-09-18T01:47:59.718Z,48.52
2022-09-18T01:50:26.052Z,48.49
2022-09-18T01:52:52.392Z,48.50
2022-09-18T01:55:18.739Z,48.45
2022-09-18T01:57:45.070Z,48.39
2022-09-18T02:00:11.414Z,48.45
2022-09-18T02:02:37.851Z,48.40
2022-09-18T02:05:04.143Z,48.34
2022-09-18T02:07:30.479Z,48.37
2022-09-18T02:09:56.827Z,48.23
2022-09-18T02:12:23.163Z,48.04
2022-09-18T02:14:49.497Z,47.91
2022-09-18T02:17:15.835Z,47.94
2022-09-18T02:19:42.178Z,48.10
2022-09-18T02:22:08.518Z,48.10
2022-09-18T02:24:34.875Z,47.50
2022-09-18T02:27:01.203Z,47.60
2022-09-18T02:29:27.549Z,47.52
2022-09-18T02:31:53.945Z,47.51
2022-09-18T02:34:20.230Z,47.48
2022-09-18T02:36:46.572Z,47.40
2022-09-18T02:39:12.927Z,47.40
2022-09-18T02:41:39.265Z,47.40
2022-09-18T02:44:05.607Z,47.27
2022-09-18T02:46:32.001Z,47.38
2022-09-18T02:48:58.295Z,47.32
2022-09-18T02:51:24.681Z,47.26
2022-09-18T02:53:51.028Z,47.20
2022-09-18T02:56:17.359Z,47.16
2022-09-18T02:58:43.711Z,47.10
2022-09-18T03:01:10.101Z,47.12
2022-09-18T03:03:36.386Z,46.98
2022-09-18T03:06:02.733Z,46.91
2022-09-18T03:08:29.082Z,46.81
2022-09-18T03:10:55.430Z,46.81
2022-09-18T03:13:21.780Z,46.76
2022-09-18T03:15:48.151Z,46.71
2022-09-18T03:18:14.488Z,46.69
2022-09-18T03:20:40.833Z,46.63
2022-09-18T03:23:07.198Z,46.56
2022-09-18T03:25:34.300Z,46.55
2022-09-18T03:28:00.673Z,46.48
2022-09-18T03:30:26.997Z,46.39
2022-09-18T03:32:53.334Z,46.42
2022-09-18T03:35:19.674Z,46.49
2022-09-18T03:37:46.015Z,46.42
2022-09-18T03:40:12.389Z,46.27
2022-09-18T03:42:38.695Z,46.29
2022-09-18T03:45:05.047Z,46.16
2022-09-18T03:47:35.668Z,46.12
2022-09-18T03:49:57.738Z,46.12
2022-09-18T03:52:24.076Z,45.90
2022-09-18T03:54:50.422Z,45.91
2022-09-18T03:57:16.776Z,45.88
2022-09-18T03:59:43.106Z,45.78
2022-09-18T04:02:09.499Z,45.70
2022-09-18T04:04:35.807Z,45.78
2022-09-18T04:07:02.163Z,45.70
2022-09-18T04:09:28.505Z,45.69
2022-09-18T04:11:54.850Z,45.65
2022-09-18T04:14:21.219Z,45.53
2022-09-18T04:16:47.574Z,45.46
2022-09-18T04:19:13.901Z,45.49
2022-09-18T04:21:40.272Z,45.33
2022-09-18T04:24:06.611Z,45.32
2022-09-18T04:26:33.001Z,45.23
2022-09-18T04:28:59.338Z,45.19
2022-09-18T04:31:25.743Z,45.14
2022-09-18T04:33:52.026Z,45.14
2022-09-18T04:36:18.375Z,45.01
2022-09-18T04:38:44.721Z,44.98
2022-09-18T04:41:11.064Z,44.91
2022-09-18T04:43:37.413Z,44.82
2022-09-18T04:46:03.757Z,44.89
2022-09-18T04:48:30.163Z,44.79
2022-09-18T04:50:56.524Z,44.72
2022-09-18T04:53:22.876Z,44.67
2022-09-18T04:55:49.226Z,44.74
2022-09-18T04:58:15.561Z,44.60
2022-09-18T05:00:41.964Z,44.50
2022-09-18T05:03:08.244Z,44.46
2022-09-18T05:05:34.589Z,44.46
2022-09-18T05:08:00.939Z,44.41
2022-09-18T05:10:27.297Z,44.27
2022-09-18T05:12:53.637Z,44.32
2022-09-18T05:15:19.987Z,44.26
2022-09-18T05:17:46.320Z,44.27
2022-09-18T05:20:12.663Z,44.18
2022-09-18T05:22:39.012Z,44.13
2022-09-18T05:25:05.362Z,44.10
2022-09-18T05:27:31.708Z,44.12
2022-09-18T05:29:58.052Z,43.98
2022-09-18T05:32:24.384Z,44.02
2022-09-18T05:34:50.723Z,43.90
2022-09-18T05:37:17.107Z,43.88
2022-09-18T05:39:43.448Z,43.86
2022-09-18T05:42:09.800Z,43.84
2022-09-18T05:44:36.133Z,43.78
2022-09-18T05:47:02.530Z,43.74
2022-09-18T05:49:28.823Z,43.74
2022-09-18T05:51:55.164Z,43.67
2022-09-18T05:54:21.513Z,43.56
2022-09-18T05:56:47.881Z,43.63
2022-09-18T05:59:14.241Z,43.54
2022-09-18T06:01:43.674Z,43.54
2022-09-18T06:04:06.939Z,43.53
2022-09-18T06:06:33.283Z,43.49
2022-09-18T06:08:59.738Z,43.46
2022-09-18T06:11:25.998Z,43.34
2022-09-18T06:13:52.368Z,43.32
2022-09-18T06:16:18.752Z,43.31
2022-09-18T06:18:45.096Z,43.34
2022-09-18T06:21:11.445Z,43.21
2022-09-18T06:23:37.820Z,43.24
2022-09-18T06:26:04.169Z,43.10
2022-09-18T06:28:30.504Z,43.07
2022-09-18T06:30:56.866Z,43.04
2022-09-18T06:33:23.186Z,42.92
2022-09-18T06:35:49.531Z,42.93
2022-09-18T06:38:15.911Z,42.85
2022-09-18T06:40:42.315Z,42.84
2022-09-18T06:43:08.605Z,42.76
2022-09-18T06:45:34.979Z,42.82
2022-09-18T06:48:01.303Z,42.79
2022-09-18T06:50:27.648Z,42.64
2022-09-18T06:52:53.994Z,42.61
2022-09-18T06:55:20.342Z,42.61
2022-09-18T06:57:46.676Z,42.65
2022-09-18T07:00:13.088Z,42.61
2022-09-18T07:02:39.513Z,42.54
2022-09-18T07:05:05.805Z,42.49
2022-09-18T07:07:32.150Z,42.50
2022-09-18T07:09:58.489Z,42.44
2022-09-18T07:12:24.845Z,42.40
2022-09-18T07:14:51.192Z,42.34
2022-09-18T07:17:19.234Z,42.30
2022-09-18T07:19:43.876Z,42.31
2022-09-18T07:22:10.218Z,42.24
2022-09-18T07:24:36.565Z,42.14
2022-09-18T07:27:02.892Z,42.15
2022-09-18T07:29:29.248Z,42.03
2022-09-18T07:31:55.595Z,42.15
2022-09-18T07:34:21.940Z,42.11
2022-09-18T07:36:48.271Z,41.94
2022-09-18T07:39:14.625Z,42.02
2022-09-18T07:41:40.973Z,42.05
2022-09-18T07:44:07.313Z,41.95
2022-09-18T07:46:33.688Z,41.95
2022-09-18T07:49:00.002Z,41.99
2022-09-18T07:51:26.626Z,41.91
2022-09-18T07:53:52.726Z,41.89
2022-09-18T07:56:19.058Z,41.63
2022-09-18T07:58:45.403Z,41.83
2022-09-18T08:01:11.739Z,41.87
2022-09-18T08:03:41.416Z,41.72
2022-09-18T08:06:04.428Z,41.48
2022-09-18T08:08:30.825Z,41.53
2022-09-18T08:10:57.197Z,41.62
2022-09-18T08:13:23.538Z,41.50
2022-09-18T08:15:49.954Z,41.59
2022-09-18T08:18:16.217Z,41.47
2022-09-18T08:20:42.598Z,41.50
2022-09-18T08:23:08.951Z,41.50
2022-09-18T08:25:35.280Z,41.41
2022-09-18T08:28:01.638Z,41.34
2022-09-18T08:30:27.975Z,41.37
2022-09-18T08:32:54.321Z,41.23
2022-09-18T08:35:20.663Z,41.12
2022-09-18T08:37:47.005Z,41.16
2022-09-18T08:40:13.399Z,41.08
2022-09-18T08:42:39.687Z,40.90
2022-09-18T08:45:06.029Z,40.79
2022-09-18T08:47:32.380Z,40.66
2022-09-18T08:49:59.064Z,40.62
2022-09-18T08:52:25.417Z,40.48
2022-09-18T08:54:51.765Z,40.46
2022-09-18T08:57:18.117Z,40.43
2022-09-18T08:59:44.460Z,40.35
2022-09-18T09:02:10.866Z,40.28
2022-09-18T09:04:37.144Z,39.89
2022-09-18T09:07:03.500Z,39.60
2022-09-18T09:09:29.852Z,39.42
2022-09-18T09:11:56.197Z,39.23
2022-09-18T09:14:39.632Z,39.29
2022-09-18T09:16:48.877Z,38.70
2022-09-18T09:19:15.211Z,38.57
2022-09-18T09:21:41.553Z,38.07
2022-09-18T09:24:07.891Z,37.80
2022-09-18T09:26:34.246Z,37.43
2022-09-18T09:29:00.601Z,37.22
2022-09-18T09:31:26.990Z,37.08
2022-09-18T09:33:53.273Z,36.91
2022-09-18T09:36:19.621Z,36.78
2022-09-18T09:38:45.964Z,36.31
2022-09-18T09:41:12.351Z,36.01
2022-09-18T09:43:38.682Z,35.82
2022-09-18T09:46:05.029Z,35.71
2022-09-18T09:48:31.389Z,35.49
2022-09-18T09:50:57.742Z,35.30
2022-09-18T09:53:24.075Z,35.01
2022-09-18T09:55:50.416Z,34.83
2022-09-18T09:58:16.765Z,34.47
2022-09-18T10:00:43.166Z,34.39
2022-09-18T10:03:09.459Z,34.22
2022-09-18T10:05:35.806Z,34.11
2022-09-18T10:08:02.137Z,33.80
2022-09-18T10:10:28.483Z,33.65
2022-09-18T10:12:54.834Z,33.55
2022-09-18T10:15:21.179Z,33.32
2022-09-18T10:17:47.529Z,32.88
2022-09-18T10:20:13.870Z,32.75
2022-09-18T10:22:40.218Z,32.58
2022-09-18T10:25:06.555Z,32.40
2022-09-18T10:27:32.899Z,32.35
2022-09-18T10:30:00.234Z,32.27
2022-09-18T10:32:25.596Z,32.19
2022-09-18T10:34:51.945Z,32.14
2022-09-18T10:37:18.294Z,32.01
2022-09-18T10:39:44.642Z,31.87
2022-09-18T10:42:10.971Z,31.72
2022-09-18T10:44:37.369Z,31.70
2022-09-18T10:47:03.769Z,31.53
2022-09-18T10:49:30.084Z,31.44
2022-09-18T10:51:56.428Z,31.24
2022-09-18T10:54:22.794Z,31.14
2022-09-18T10:56:49.111Z,30.96
2022-09-18T10:59:15.455Z,30.97
2022-09-18T11:01:44.837Z,30.69
2022-09-18T11:04:08.167Z,30.62
2022-09-18T11:06:34.522Z,30.39
2022-09-18T11:09:00.915Z,30.21
2022-09-18T11:11:27.238Z,30.17
2022-09-18T11:13:53.577Z,30.05
2022-09-18T11:16:19.943Z,29.91
2022-09-18T11:18:47.524Z,29.80
2022-09-18T11:21:12.618Z,29.67
2022-09-18T11:23:38.964Z,29.56
2022-09-18T11:26:05.333Z,29.47
2022-09-18T11:28:31.691Z,29.38
2022-09-18T11:30:58.059Z,29.27
2022-09-18T11:33:24.401Z,29.23
2022-09-18T11:38:35.070Z,28.95
2022-09-18T11:41:01.426Z,28.83
2022-09-18T11:43:27.756Z,28.76
2022-09-18T11:45:54.172Z,28.63
2022-09-18T11:48:20.516Z,28.50
2022-09-18T11:50:46.887Z,28.38
2022-09-18T11:53:13.228Z,28.26
2022-09-18T11:55:39.616Z,28.21
2022-09-18T11:58:05.942Z,28.07
2022-09-18T12:00:32.288Z,27.97
2022-09-18T12:02:58.680Z,27.91
2022-09-18T12:05:24.997Z,27.80
2022-09-18T12:07:51.389Z,27.71
2022-09-18T12:10:16.323Z,27.60
2022-09-18T12:12:42.657Z,27.54
2022-09-18T12:15:08.994Z,27.38
2022-09-18T12:17:35.341Z,27.24
2022-09-18T12:20:01.675Z,27.12
2022-09-18T12:22:28.013Z,27.01
2022-09-18T12:24:54.430Z,26.86
2022-09-18T12:27:20.760Z,26.75
2022-09-18T12:29:47.093Z,26.64
2022-09-18T12:32:13.433Z,26.39
2022-09-18T12:34:39.768Z,25.33
2022-09-18T12:37:06.099Z,23.96
2022-09-18T12:39:33.114Z,23.49
2022-09-18T12:42:00.472Z,23.21
2022-09-18T12:44:25.804Z,22.96
2022-09-18T12:46:52.150Z,22.88
2022-09-18T12:49:18.479Z,23.67
2022-09-18T12:51:44.883Z,24.96
2022-09-18T12:54:11.221Z,25.20
2022-09-18T12:56:38.504Z,25.23
2022-09-18T12:59:03.910Z,25.19
2022-09-18T13:01:30.251Z,25.03
2022-09-18T13:03:56.596Z,24.49
2022-09-18T13:06:22.968Z,22.51
2022-09-18T13:08:49.313Z,21.84
2022-09-18T13:11:15.680Z,21.65
2022-09-18T13:13:42.022Z,21.49
2022-09-18T13:16:08.407Z,21.32
2022-09-18T13:18:35.432Z,21.24
2022-09-18T13:21:01.777Z,21.00
2022-09-18T13:23:28.121Z,21.01
2022-09-18T13:25:54.459Z,20.90
2022-09-18T13:28:20.830Z,20.72
2022-09-18T13:30:47.196Z,20.55
2022-09-18T13:33:13.540Z,20.67
2022-09-18T13:35:39.889Z,20.83
2022-09-18T13:38:06.262Z,20.76
2022-09-18T13:40:32.643Z,20.65
2022-09-18T13:42:58.975Z,20.55
2022-09-18T13:45:25.285Z,20.47
2022-09-18T13:47:51.638Z,20.42
2022-09-18T13:50:17.968Z,20.33
2022-09-18T13:52:44.317Z,20.31
2022-09-18T13:55:10.649Z,20.30
2022-09-18T13:57:36.994Z,20.29
2022-09-18T14:00:03.325Z,20.14
2022-09-18T14:02:29.823Z,20.10
2022-09-18T14:04:56.154Z,20.40
2022-09-18T14:07:22.495Z,20.70
2022-09-18T14:09:48.831Z,21.46
2022-09-18T14:12:15.167Z,21.97
2022-09-18T14:14:41.506Z,22.12
2022-09-18T14:17:07.843Z,22.24
2022-09-18T14:19:34.191Z,22.46
2022-09-18T14:22:00.532Z,22.55
2022-09-18T14:24:26.879Z,22.61
2022-09-18T14:26:53.222Z,22.82
2022-09-18T14:29:19.577Z,22.95
2022-09-18T14:31:45.967Z,23.06
2022-09-18T14:34:12.254Z,23.14
2022-09-18T14:36:38.593Z,23.25
2022-09-18T14:39:04.935Z,23.38
2022-09-18T14:41:31.284Z,23.40
2022-09-18T14:43:57.619Z,23.59
2022-09-18T14:46:23.965Z,23.62
2022-09-18T14:48:50.313Z,23.64
2022-09-18T14:51:16.665Z,23.80
2022-09-18T14:53:43.043Z,23.81
2022-09-18T14:56:09.392Z,24.06
2022-09-18T14:58:35.727Z,24.12
2022-09-18T15:01:02.136Z,24.11
2022-09-18T15:03:28.419Z,23.74
2022-09-18T15:05:54.759Z,24.20
2022-09-18T15:08:24.659Z,24.60
2022-09-18T15:10:47.444Z,25.17
2022-09-18T15:13:13.809Z,25.42
2022-09-18T15:15:40.166Z,25.75
2022-09-18T15:18:06.516Z,25.91
2022-09-18T15:20:32.871Z,26.18
2022-09-18T15:22:59.219Z,26.38
2022-09-18T15:25:25.568Z,26.38
2022-09-18T15:27:51.914Z,26.58
2022-09-18T15:30:18.260Z,26.81
2022-09-18T15:32:44.618Z,26.79
2022-09-18T15:35:10.973Z,27.00
2022-09-18T15:37:38.546Z,27.31
2022-09-18T15:40:04.995Z,27.41
2022-09-18T15:42:31.245Z,27.37
2022-09-18T15:44:57.600Z,27.56
2022-09-18T15:47:23.946Z,27.54
2022-09-18T15:49:50.298Z,27.54
2022-09-18T15:52:16.644Z,27.67
2022-09-18T15:54:42.991Z,27.66
2022-09-18T15:57:09.361Z,27.63
2022-09-18T15:59:35.720Z,27.64
2022-09-18T16:02:02.107Z,27.76
2022-09-18T16:04:29.488Z,27.76
2022-09-18T16:06:54.736Z,27.80
2022-09-18T16:09:21.115Z,27.76
2022-09-18T16:11:47.469Z,27.62
2022-09-18T16:14:13.814Z,27.36
2022-09-18T16:16:40.221Z,27.18
2022-09-18T16:19:06.504Z,27.22
2022-09-18T16:21:32.846Z,27.18
2022-09-18T16:23:59.220Z,27.17
2022-09-18T16:26:25.562Z,27.12
2022-09-18T16:28:51.900Z,27.12
2022-09-18T16:31:18.334Z,27.18
2022-09-18T16:33:47.985Z,27.19
2022-09-18T16:36:10.976Z,27.22
2022-09-18T16:38:37.320Z,27.22
2022-09-18T16:41:03.668Z,27.25
2022-09-18T16:43:30.020Z,27.32
2022-09-18T16:45:56.399Z,27.36
2022-09-18T16:48:22.704Z,27.44
2022-09-18T16:50:49.046Z,27.35
2022-09-18T16:53:15.385Z,27.44
2022-09-18T16:55:41.726Z,27.50
2022-09-18T16:58:08.074Z,27.53
2022-09-18T17:00:34.428Z,27.60
2022-09-18T17:03:00.767Z,27.60
2022-09-18T17:05:27.098Z,27.63
2022-09-18T17:07:53.440Z,27.67
2022-09-18T17:10:19.795Z,27.66
2022-09-18T17:12:46.137Z,27.73
2022-09-18T17:15:12.478Z,27.73
2022-09-18T17:17:38.812Z,27.81
2022-09-18T17:20:05.153Z,27.86
2022-09-18T17:22:31.484Z,27.90
2022-09-18T17:24:57.863Z,27.89
2022-09-18T17:27:24.203Z,27.99
2022-09-18T17:29:50.766Z,27.98
2022-09-18T17:32:17.103Z,28.05
2022-09-18T17:34:43.446Z,28.05
2022-09-18T17:37:09.775Z,28.07
2022-09-18T17:39:36.121Z,28.09
2022-09-18T17:42:02.461Z,28.14
2022-09-18T17:44:28.802Z,28.17
2022-09-18T17:46:55.200Z,28.17
2022-09-18T17:49:21.484Z,28.21
2022-09-18T17:51:47.828Z,28.24
2022-09-18T17:54:14.164Z,28.25
2022-09-18T17:56:40.503Z,28.29
2022-09-18T17:59:06.844Z,28.31
2022-09-18T18:01:33.212Z,28.32
2022-09-18T18:03:59.553Z,28.29
2022-09-18T18:06:25.897Z,28.20
2022-09-18T18:08:52.239Z,28.28
2022-09-18T18:11:18.584Z,28.30
2022-09-18T18:13:44.925Z,28.33
2022-09-18T18:16:11.372Z,28.30
2022-09-18T18:18:37.644Z,28.45
2022-09-18T18:21:04.012Z,28.29
2022-09-18T18:23:30.380Z,28.39
2022-09-18T18:25:56.712Z,28.44
2022-09-18T18:28:23.086Z,28.40
2022-09-18T18:30:49.432Z,28.44
2022-09-18T18:33:15.782Z,28.47
2022-09-18T18:35:42.117Z,28.49
2022-09-18T18:38:08.463Z,28.47
2022-09-18T18:40:34.847Z,28.49
2022-09-18T18:43:01.160Z,28.38
2022-09-18T18:45:27.494Z,28.42
2022-09-18T18:47:53.834Z,28.49
2022-09-18T18:50:20.168Z,28.51
2022-09-18T18:52:46.516Z,28.55
2022-09-18T18:55:12.844Z,28.51
2022-09-18T18:57:39.190Z,28.56
2022-09-18T19:00:05.530Z,28.53
2022-09-18T19:02:31.875Z,28.53
2022-09-18T19:04:58.205Z,28.56
2022-09-18T19:07:24.552Z,28.57
2022-09-18T19:09:50.898Z,28.60
2022-09-18T19:12:17.244Z,28.64
2022-09-18T19:14:43.578Z,28.66
2022-09-18T19:17:09.922Z,28.63
2022-09-18T19:19:36.262Z,28.71
2022-09-18T19:22:02.626Z,28.72
2022-09-18T19:24:28.957Z,28.69
2022-09-18T19:26:55.295Z,28.78
2022-09-18T19:29:21.642Z,28.85
2022-09-18T19:31:48.099Z,28.89
2022-09-18T19:34:14.332Z,28.89
2022-09-18T19:36:40.676Z,28.94
2022-09-18T19:39:07.008Z,29.00
2022-09-18T19:41:33.353Z,28.97
2022-09-18T19:43:59.687Z,29.00
2022-09-18T19:46:26.085Z,28.99
2022-09-18T19:48:53.401Z,28.98
2022-09-18T19:51:19.753Z,28.97
2022-09-18T19:53:46.096Z,29.00
2022-09-18T19:56:32.980Z,29.03
2022-09-18T19:58:38.815Z,29.03
2022-09-18T20:01:05.260Z,29.05
2022-09-18T20:03:31.552Z,29.07
2022-09-18T20:05:57.892Z,29.08
2022-09-18T20:08:24.225Z,29.11
2022-09-18T20:10:50.598Z,29.11
2022-09-18T20:13:16.939Z,29.13
2022-09-18T20:15:43.284Z,29.21
2022-09-18T20:18:09.650Z,29.21
2022-09-18T20:23:20.273Z,29.23
2022-09-18T20:25:46.605Z,29.26
2022-09-18T20:28:13.030Z,29.27
2022-09-18T20:30:39.385Z,29.24
2022-09-18T20:33:05.739Z,29.30
2022-09-18T20:35:32.075Z,29.34
2022-09-18T20:37:58.414Z,29.31
2022-09-18T20:40:24.794Z,29.31
2022-09-18T20:42:51.127Z,29.37
2022-09-18T20:45:17.470Z,29.38
2022-09-18T20:47:43.877Z,29.39
2022-09-18T20:50:10.218Z,29.43
2022-09-18T20:52:36.591Z,29.44
2022-09-18T20:55:02.931Z,29.54
2022-09-18T20:57:29.272Z,29.48
2022-09-18T20:59:55.604Z,29.57
2022-09-18T21:02:21.996Z,29.52
2022-09-18T21:04:48.303Z,29.53
2022-09-18T21:07:14.710Z,29.59
2022-09-18T21:09:41.054Z,29.64
2022-09-18T21:12:07.401Z,29.63
2022-09-18T21:14:33.749Z,29.59
2022-09-18T21:17:00.086Z,29.69
2022-09-18T21:19:26.503Z,29.71
2022-09-18T21:21:52.800Z,29.65
2022-09-18T21:24:19.139Z,29.68
2022-09-18T21:26:45.487Z,29.74
2022-09-18T21:29:11.856Z,29.69
2022-09-18T21:31:38.219Z,29.73
2022-09-18T21:34:04.548Z,29.73
2022-09-18T21:36:30.885Z,29.76
2022-09-18T21:38:57.216Z,29.79
2022-09-18T21:41:23.574Z,29.82
2022-09-18T21:43:49.983Z,29.87
2022-09-18T21:46:16.293Z,29.83
2022-09-18T21:48:42.584Z,29.88
2022-09-18T21:51:08.936Z,29.95
2022-09-18T21:53:35.279Z,29.90
2022-09-18T21:56:01.624Z,29.85
2022-09-18T21:58:27.973Z,29.88
2022-09-18T22:00:54.336Z,29.86
2022-09-18T22:03:20.670Z,29.88
2022-09-18T22:05:47.005Z,29.88
2022-09-18T22:08:13.349Z,29.95
2022-09-18T22:10:39.688Z,29.88
2022-09-18T22:13:06.027Z,29.95
2022-09-18T22:15:32.399Z,29.89
2022-09-18T22:17:58.739Z,29.88
2022-09-18T22:20:25.086Z,29.94
2022-09-18T22:22:51.436Z,30.05
2022-09-18T22:25:17.781Z,29.98
2022-09-18T22:27:45.063Z,29.99
2022-09-18T22:30:10.471Z,30.09
2022-09-18T22:32:36.806Z,30.21
2022-09-18T22:35:03.152Z,30.17
2022-09-18T22:37:29.502Z,30.27
2022-09-18T22:39:55.947Z,30.27
2022-09-18T22:42:22.219Z,30.24
2022-09-18T22:44:48.561Z,30.28
2022-09-18T22:47:14.913Z,30.24
2022-09-18T22:49:41.309Z,30.24
2022-09-18T22:52:07.677Z,30.21
2022-09-18T22:54:34.025Z,30.18
2022-09-18T22:57:00.405Z,30.26
2022-09-18T22:59:26.740Z,30.29
2022-09-18T23:01:53.124Z,30.30
2022-09-18T23:04:19.479Z,30.24
2022-09-18T23:06:45.775Z,30.31
2022-09-18T23:09:12.239Z,30.25
2022-09-18T23:11:38.582Z,30.38
2022-09-18T23:14:04.927Z,30.22
2022-09-18T23:16:31.288Z,30.18
2022-09-18T23:18:57.618Z,30.23
2022-09-18T23:21:23.951Z,30.24
2022-09-18T23:23:50.295Z,30.24
2022-09-18T23:26:16.642Z,30.37
2022-09-18T23:28:43.001Z,30.40
2022-09-18T23:31:09.372Z,30.37
2022-09-18T23:33:35.684Z,30.33
2022-09-18T23:36:02.039Z,30.38
2022-09-18T23:38:28.380Z,30.33
2022-09-18T23:40:54.745Z,30.46
2022-09-18T23:43:21.088Z,30.61
2022-09-18T23:45:47.467Z,30.46
2022-09-18T23:48:13.809Z,30.43
2022-09-18T23:50:42.367Z,30.55
2022-09-18T23:53:08.717Z,30.55
2022-09-18T23:55:35.052Z,30.58
2022-09-18T23:58:01.406Z,30.68
